Time;durP1;ratioP1;P1;durP2;ratioP2;P2;SDS_P1;SDS_P2;PMS_P1;PMS_P2;Temp;Humidity;BMP_temperature;BMP_pressure;BME280_temperature;BME280_humidity;BME280_pressure;Samples;Min_cycle;Max_cycle;Signal;HPM_P1;HPM_P2
2024/02/29 00:03:38;;;;;;;1999.90;999.90;;;;;;;9.23;100.00;95196.47;10402395;28;20276;-80
2024/02/29 00:08:38;;;;;;;1999.90;999.90;;;;;;;9.20;100.00;95195.09;10401741;28;20268;-78
2024/02/29 00:13:39;;;;;;;1999.90;999.90;;;;;;;9.11;100.00;95187.75;10400611;28;20666;-81
2024/02/29 00:18:39;;;;;;;1999.90;999.90;;;;;;;9.17;100.00;95194.81;10401322;28;20049;-81
2024/02/29 00:23:41;;;;;;;1999.90;999.90;;;;;;;9.03;100.00;95195.19;10402577;28;20033;-80
2024/02/29 00:28:41;;;;;;;1999.90;999.90;;;;;;;8.90;100.00;95195.56;10402012;28;20028;-79
2024/02/29 00:33:41;;;;;;;1999.90;999.90;;;;;;;8.85;100.00;95193.66;10384872;28;20028;-78
2024/02/29 00:38:42;;;;;;;1999.90;999.90;;;;;;;8.84;100.00;95196.59;10400628;28;20271;-77
2024/02/29 00:43:43;;;;;;;1999.90;999.90;;;;;;;8.60;100.00;95201.41;10402727;28;20606;-82
2024/02/29 00:48:45;;;;;;;1999.90;999.90;;;;;;;8.60;100.00;95199.53;10402120;28;20033;-81
2024/02/29 00:53:46;;;;;;;1999.90;999.90;;;;;;;8.53;100.00;95198.91;10401626;28;20549;-76
2024/02/29 00:58:46;;;;;;;1999.90;999.90;;;;;;;8.67;100.00;95200.13;10399773;28;20057;-78
2024/02/29 01:03:46;;;;;;;1999.90;999.90;;;;;;;8.64;100.00;95205.22;10385885;28;20108;-82
2024/02/29 01:08:47;;;;;;;1999.90;999.90;;;;;;;8.67;100.00;95208.19;10403139;28;20033;-82
2024/02/29 01:13:48;;;;;;;1999.90;999.90;;;;;;;8.50;100.00;95200.19;10401205;28;20025;-78
2024/02/29 01:19:00;;;;;;;1999.90;999.90;;;;;;;8.37;100.00;95206.72;10402854;28;20072;-83
2024/02/29 01:24:02;;;;;;;1999.90;999.90;;;;;;;8.32;100.00;95209.31;10402939;28;20103;-82
2024/02/29 01:29:02;;;;;;;1999.90;999.90;;;;;;;8.24;100.00;95212.41;10401618;28;20689;-80
2024/02/29 01:34:05;;;;;;;1999.90;999.90;;;;;;;8.26;100.00;95209.47;10403125;28;20412;-82
2024/02/29 01:39:06;;;;;;;1999.90;999.90;;;;;;;8.21;100.00;95207.53;10405097;28;20294;-81
2024/02/29 01:44:07;;;;;;;1999.90;999.90;;;;;;;8.19;100.00;95201.59;10404560;28;20044;-76
2024/02/29 01:49:08;;;;;;;1999.90;999.90;;;;;;;8.06;100.00;95193.94;10386132;28;20048;-77
2024/02/29 01:54:10;;;;;;;1999.90;999.90;;;;;;;8.01;100.00;95192.81;10404089;28;20478;-77
2024/02/29 01:59:13;;;;;;;1999.90;999.90;;;;;;;7.91;100.00;95189.16;10399249;28;20658;-76
2024/02/29 02:04:13;;;;;;;1999.90;999.90;;;;;;;7.67;100.00;95202.72;10400320;28;20021;-75
2024/02/29 02:09:14;;;;;;;1999.90;999.90;;;;;;;7.76;100.00;95189.72;10399465;28;20029;-76
2024/02/29 02:14:16;;;;;;;1999.90;999.90;;;;;;;7.66;100.00;95204.59;10400194;28;20396;-75
2024/02/29 02:19:17;;;;;;;1999.90;999.90;;;;;;;7.54;100.00;95203.84;10402033;28;20050;-79
2024/02/29 02:24:20;;;;;;;1999.90;999.90;;;;;;;7.60;100.00;95210.88;10410564;28;20029;-79
2024/02/29 02:29:21;;;;;;;1999.90;999.90;;;;;;;7.58;100.00;95221.03;10409670;28;20029;-81
2024/02/29 02:34:22;;;;;;;1999.90;999.90;;;;;;;7.66;100.00;95201.09;10408128;28;20103;-79
2024/02/29 02:39:22;;;;;;;1999.90;999.90;;;;;;;7.68;100.00;95199.78;10407627;28;20495;-80
2024/02/29 02:44:22;;;;;;;1999.90;999.90;;;;;;;7.49;100.00;95201.09;10411057;28;20276;-76
2024/02/29 02:49:24;;;;;;;1999.90;999.90;;;;;;;7.45;100.00;95194.59;10406688;28;20801;-79
2024/02/29 02:54:24;;;;;;;1999.90;999.90;;;;;;;7.56;100.00;95179.53;10406453;28;20342;-77
2024/02/29 02:59:26;;;;;;;1999.90;999.90;;;;;;;7.66;100.00;95183.19;10404485;28;20068;-76
2024/02/29 03:04:27;;;;;;;1999.90;999.90;;;;;;;7.61;100.00;95177.75;10388171;28;20116;-77
2024/02/29 03:09:27;;;;;;;1999.90;999.90;;;;;;;7.71;100.00;95193.16;10422223;28;20039;-82
2024/02/29 03:14:27;;;;;;;1999.90;999.90;;;;;;;7.85;100.00;95191.75;10406481;28;20291;-78
2024/02/29 03:19:28;;;;;;;1999.90;999.90;;;;;;;7.87;100.00;95194.22;10387492;28;20280;-78
2024/02/29 03:24:28;;;;;;;1999.90;999.90;;;;;;;7.94;100.00;95192.19;10405683;28;20354;-82
2024/02/29 03:29:30;;;;;;;1999.90;999.90;;;;;;;7.77;100.00;95189.53;10404945;28;20284;-78
2024/02/29 03:34:32;;;;;;;1999.90;999.90;;;;;;;7.70;100.00;95184.31;10408424;28;20404;-83
2024/02/29 03:39:32;;;;;;;1999.90;999.90;;;;;;;7.82;100.00;95178.06;10404416;28;20566;-76
2024/02/29 03:44:33;;;;;;;1999.90;999.90;;;;;;;7.82;100.00;95180.75;10405172;28;20084;-81
2024/02/29 03:49:34;;;;;;;1999.90;999.90;;;;;;;7.78;100.00;95176.94;10406847;28;20276;-82
2024/02/29 03:54:34;;;;;;;1999.90;999.90;;;;;;;7.74;100.00;95181.16;10404865;28;20127;-82
2024/02/29 03:59:35;;;;;;;1999.90;999.90;;;;;;;7.78;100.00;95185.75;10401730;28;20060;-79
2024/02/29 04:04:37;;;;;;;1999.90;999.90;;;;;;;7.79;100.00;95184.72;10404411;28;20356;-77
2024/02/29 04:09:38;;;;;;;1999.90;999.90;;;;;;;7.90;100.00;95185.69;10403422;28;20491;-77
2024/02/29 04:14:38;;;;;;;1999.90;999.90;;;;;;;7.87;100.00;95170.13;10414198;28;20036;-79
2024/02/29 04:19:39;;;;;;;1999.90;999.90;;;;;;;7.69;100.00;95174.66;10416011;28;20127;-78
2024/02/29 04:24:39;;;;;;;1999.90;999.90;;;;;;;7.55;100.00;95152.00;10404853;28;20040;-78
2024/02/29 04:29:39;;;;;;;1999.90;999.90;;;;;;;7.53;100.00;95170.97;10402588;28;20031;-79
2024/02/29 04:34:41;;;;;;;1999.90;999.90;;;;;;;7.33;100.00;95159.91;10403001;28;20751;-78
2024/02/29 04:39:43;;;;;;;1999.90;999.90;;;;;;;7.13;100.00;95165.69;10403826;28;20280;-82
2024/02/29 04:44:45;;;;;;;1999.90;999.90;;;;;;;7.16;100.00;95160.69;10402644;28;20028;-82
2024/02/29 04:49:45;;;;;;;1999.90;999.90;;;;;;;7.28;100.00;95157.94;10403296;28;20474;-84
2024/02/29 04:54:46;;;;;;;1999.90;999.90;;;;;;;7.40;100.00;95165.91;10402347;28;20049;-81
2024/02/29 04:59:46;;;;;;;1999.90;999.90;;;;;;;7.42;100.00;95168.34;10404572;28;20052;-81
2024/02/29 05:04:46;;;;;;;1999.90;999.90;;;;;;;7.61;100.00;95161.69;10402713;28;20037;-80
2024/02/29 05:09:48;;;;;;;1999.90;999.90;;;;;;;7.66;100.00;95171.66;10402264;28;20276;-82
2024/02/29 05:14:49;;;;;;;1999.90;999.90;;;;;;;7.50;100.00;95158.03;10400998;28;20052;-78
2024/02/29 05:19:49;;;;;;;1999.90;999.90;;;;;;;7.62;100.00;95173.19;10393868;28;20041;-80
2024/02/29 05:24:50;;;;;;;1999.90;999.90;;;;;;;7.71;100.00;95171.75;10402368;28;20034;-76
2024/02/29 05:29:50;;;;;;;1999.90;999.90;;;;;;;7.81;100.00;95174.56;10360243;28;20038;-76
2024/02/29 05:34:50;;;;;;;1999.90;999.90;;;;;;;7.74;100.00;95181.16;10360573;28;20038;-76
2024/02/29 05:39:51;;;;;;;1999.90;999.90;;;;;;;7.88;100.00;95182.44;10375362;28;20420;-78
2024/02/29 05:44:54;;;;;;;1999.90;999.90;;;;;;;7.63;100.00;95199.72;10358041;28;20022;-80
2024/02/29 05:49:55;;;;;;;1999.90;999.90;;;;;;;7.44;100.00;95196.47;10340482;28;20041;-77
2024/02/29 05:54:56;;;;;;;1999.90;999.90;;;;;;;7.26;100.00;95205.50;10404576;28;20929;-78
2024/02/29 05:59:57;;;;;;;1999.90;999.90;;;;;;;7.40;100.00;95202.56;10403598;28;20061;-80
2024/02/29 06:04:58;;;;;;;1999.90;999.90;;;;;;;7.70;100.00;95195.03;10389489;28;20555;-79
2024/02/29 06:09:58;;;;;;;1999.90;999.90;;;;;;;7.74;100.00;95181.97;10406598;28;20040;-79
2024/02/29 06:14:59;;;;;;;1999.90;999.90;;;;;;;8.03;100.00;95190.69;10403448;28;20033;-74
2024/02/29 06:19:59;;;;;;;1999.90;999.90;;;;;;;8.05;100.00;95193.13;10403117;28;20029;-82
2024/02/29 06:25:01;;;;;;;1999.90;999.90;;;;;;;8.11;100.00;95188.66;10400477;28;20025;-76
2024/02/29 06:30:04;;;;;;;1999.90;999.90;;;;;;;8.12;100.00;95187.59;10402843;28;20033;-77
2024/02/29 06:35:05;;;;;;;1999.90;999.90;;;;;;;8.12;100.00;95188.41;10364070;28;20208;-84
2024/02/29 06:40:10;;;;;;;1999.90;999.90;;;;;;;8.23;100.00;95192.03;10363552;28;20033;-76
2024/02/29 06:45:11;;;;;;;1999.90;999.90;;;;;;;8.33;100.00;95199.41;10382764;28;20511;-77
2024/02/29 06:50:12;;;;;;;1999.90;999.90;;;;;;;8.42;100.00;95197.13;10380030;28;20041;-77
2024/02/29 06:55:12;;;;;;;1999.90;999.90;;;;;;;8.66;100.00;95193.16;10380374;28;20284;-83
2024/02/29 07:00:13;;;;;;;1999.90;999.90;;;;;;;8.82;100.00;95193.34;10380894;28;20496;-77
2024/02/29 07:05:13;;;;;;;1999.90;999.90;;;;;;;9.07;100.00;95193.63;10404786;22;20148;-77
2024/02/29 07:10:14;;;;;;;1999.90;999.90;;;;;;;9.19;100.00;95200.72;10384436;28;20437;-74
2024/02/29 07:15:14;;;;;;;1999.90;999.90;;;;;;;9.31;100.00;95198.69;10385129;28;20119;-76
2024/02/29 07:20:15;;;;;;;1999.90;999.90;;;;;;;9.40;100.00;95185.63;10384754;28;20030;-74
2024/02/29 07:25:15;;;;;;;1999.90;999.90;;;;;;;9.43;100.00;95185.13;10383938;28;20506;-75
2024/02/29 07:30:16;;;;;;;1999.90;999.90;;;;;;;9.46;100.00;95189.16;10383833;28;20025;-76
2024/02/29 07:35:17;;;;;;;1999.90;999.90;;;;;;;9.52;100.00;95172.06;10382549;28;20025;-75
2024/02/29 07:40:17;;;;;;;1999.90;999.90;;;;;;;9.48;100.00;95174.44;10382175;28;20292;-74
2024/02/29 07:45:18;;;;;;;1999.90;999.90;;;;;;;9.65;100.00;95187.72;10383363;28;20018;-75
2024/02/29 07:50:19;;;;;;;1999.90;999.90;;;;;;;9.77;100.00;95178.69;10383370;28;20487;-75
2024/02/29 07:55:19;;;;;;;1999.90;999.90;;;;;;;9.65;100.00;95178.88;10383366;28;20025;-75
2024/02/29 08:00:20;;;;;;;1999.90;999.90;;;;;;;9.73;100.00;95179.19;10383155;28;20575;-75
2024/02/29 08:05:20;;;;;;;1999.90;999.90;;;;;;;9.94;100.00;95173.19;10382753;28;20393;-74
2024/02/29 08:10:21;;;;;;;1999.90;999.90;;;;;;;9.94;100.00;95170.50;10383071;28;20040;-75
2024/02/29 08:15:21;;;;;;;1999.90;999.90;;;;;;;9.92;100.00;95154.63;10379728;28;20559;-75
2024/02/29 08:20:25;;;;;;;1999.90;999.90;;;;;;;10.14;100.00;95149.13;10381998;28;20131;-75
2024/02/29 08:25:26;;;;;;;1999.90;999.90;;;;;;;10.34;100.00;95132.38;10381959;28;20802;-74
2024/02/29 08:30:26;;;;;;;1999.90;999.90;;;;;;;10.48;100.00;95118.44;10380012;28;20120;-75
2024/02/29 08:35:26;;;;;;;1999.90;999.90;;;;;;;10.52;100.00;95111.47;10381932;28;20680;-74
2024/02/29 08:40:27;;;;;;;1999.90;999.90;;;;;;;10.57;100.00;95133.00;10381621;28;20362;-74
2024/02/29 08:45:28;;;;;;;1999.90;999.90;;;;;;;10.45;100.00;95127.81;10381070;28;20272;-76
2024/02/29 08:50:28;;;;;;;1999.90;999.90;;;;;;;10.41;100.00;95119.50;10381453;28;20055;-76
2024/02/29 08:55:28;;;;;;;1999.90;999.90;;;;;;;10.29;100.00;95129.63;10380747;28;20029;-76
2024/02/29 09:00:29;;;;;;;1999.90;999.90;;;;;;;10.24;100.00;95116.97;10378872;28;20037;-73
2024/02/29 09:05:29;;;;;;;1999.90;999.90;;;;;;;10.65;100.00;95129.00;10380699;28;20293;-75
2024/02/29 09:10:29;;;;;;;1999.90;999.90;;;;;;;10.94;100.00;95121.28;10380888;28;20380;-76
2024/02/29 09:15:31;;;;;;;1999.90;999.90;;;;;;;11.19;100.00;95112.44;10378939;28;20737;-74
2024/02/29 09:20:31;;;;;;;1999.90;999.90;;;;;;;11.30;100.00;95107.84;10380685;28;20451;-74
2024/02/29 09:25:31;;;;;;;1999.90;999.90;;;;;;;11.29;100.00;95120.50;10380516;28;20041;-74
2024/02/29 09:30:32;;;;;;;1999.90;999.90;;;;;;;11.26;100.00;95125.63;10388187;28;20033;-76
2024/02/29 09:35:32;;;;;;;1999.90;999.90;;;;;;;11.29;100.00;95125.91;10388452;28;20754;-75
2024/02/29 09:40:32;;;;;;;1999.90;999.90;;;;;;;11.38;100.00;95134.25;10389784;28;20067;-75
2024/02/29 09:45:37;;;;;;;1999.90;999.90;;;;;;;11.68;100.00;95124.56;10387074;28;20120;-74
2024/02/29 09:50:37;;;;;;;1999.90;999.90;;;;;;;11.63;100.00;95121.88;10387907;28;20033;-76
2024/02/29 09:55:38;;;;;;;1999.90;999.90;;;;;;;11.54;100.00;95118.91;10388510;28;20037;-76
2024/02/29 10:00:38;;;;;;;1999.90;999.90;;;;;;;11.52;100.00;95131.03;10388223;28;20561;-74
2024/02/29 10:05:39;;;;;;;1999.90;999.90;;;;;;;11.80;100.00;95127.78;10387971;28;20065;-75
2024/02/29 10:10:39;;;;;;;1999.90;999.90;;;;;;;12.07;100.00;95126.69;10388007;28;20283;-75
2024/02/29 10:15:41;;;;;;;1999.90;999.90;;;;;;;12.47;100.00;95122.28;10386352;28;20025;-76
2024/02/29 10:20:42;;;;;;;1999.90;999.90;;;;;;;12.82;100.00;95115.13;10386813;28;20069;-76
2024/02/29 10:25:43;;;;;;;1999.90;999.90;;;;;;;13.30;100.00;95102.94;10387153;28;20041;-75
2024/02/29 10:30:50;;;;;;;1999.90;999.90;;;;;;;13.41;100.00;95112.63;10386745;28;20466;-75
2024/02/29 10:35:52;;;;;;;1999.90;999.90;;;;;;;13.76;100.00;95105.31;10387409;28;20533;-74
2024/02/29 10:41:00;;;;;;;1999.90;999.90;;;;;;;14.77;99.24;95098.28;10386081;28;20045;-76
2024/02/29 10:46:04;;;;;;;1999.90;999.90;;;;;;;15.56;90.44;95083.34;10385928;28;20433;-75
2024/02/29 10:51:15;;;;;;;1999.90;999.90;;;;;;;15.99;81.80;95075.03;10385833;28;20033;-75
2024/02/29 10:56:23;;;;;;;1999.90;999.90;;;;;;;16.30;78.18;95065.50;10383903;28;20037;-75
2024/02/29 11:01:25;;;;;;;1999.90;999.90;;;;;;;16.59;73.38;95059.78;10385817;28;20455;-76
2024/02/29 11:06:32;;;;;;;1999.90;999.90;;;;;;;17.21;70.00;95053.81;10384665;28;20096;-74
2024/02/29 11:11:33;;;;;;;1999.90;999.90;;;;;;;18.62;62.46;95053.47;10384790;28;20033;-74
2024/02/29 11:16:38;;;;;;;1999.90;999.90;;;;;;;20.54;50.80;95039.97;10384139;28;20375;-74
2024/02/29 11:21:39;;;;;;;1999.90;999.90;;;;;;;21.01;47.44;95028.94;10385293;28;20555;-75
2024/02/29 11:26:41;;;;;;;1999.90;999.90;;;;;;;22.08;44.12;95014.00;10384436;28;20029;-74
2024/02/29 11:31:54;;;;;;;1999.90;999.90;;;;;;;21.62;43.74;95005.78;10382546;28;20448;-75
2024/02/29 11:36:54;;;;;;;1999.90;999.90;;;;;;;19.79;47.68;95005.75;10383762;28;20029;-75
2024/02/29 11:42:06;;;;;;;1999.90;999.90;;;;;;;19.73;48.48;94996.94;10385070;28;20492;-75
2024/02/29 11:47:07;;;;;;;1999.90;999.90;;;;;;;19.74;48.78;94979.41;10383188;28;20128;-75
2024/02/29 11:52:08;;;;;;;1999.90;999.90;;;;;;;19.05;50.89;94983.09;10383347;28;20456;-74
2024/02/29 11:57:10;;;;;;;1999.90;999.90;;;;;;;18.49;53.22;94967.31;10383291;28;20047;-74
2024/02/29 12:02:10;;;;;;;1999.90;999.90;;;;;;;17.53;60.03;94962.31;10382519;28;20096;-74
2024/02/29 12:07:11;;;;;;;1999.90;999.90;;;;;;;17.22;62.70;94959.59;10383553;28;20324;-74
2024/02/29 12:12:12;;;;;;;1999.90;999.90;;;;;;;17.00;67.06;94944.09;10382514;28;20284;-74
2024/02/29 12:17:13;;;;;;;1999.90;999.90;;;;;;;16.67;70.34;94953.22;10382201;28;20476;-75
2024/02/29 12:22:13;;;;;;;1999.90;999.90;;;;;;;16.34;74.96;94939.03;10384713;28;20100;-75
2024/02/29 12:27:14;;;;;;;1999.90;999.90;;;;;;;16.35;75.34;94921.66;10381053;28;20047;-74
2024/02/29 12:32:14;;;;;;;1999.90;999.90;;;;;;;16.61;74.10;94915.66;10382446;28;20029;-75
2024/02/29 12:37:18;;;;;;;1999.90;999.90;;;;;;;16.91;71.59;94914.97;10382197;28;20502;-76
2024/02/29 12:42:19;;;;;;;1999.90;999.90;;;;;;;16.89;70.53;94908.25;10381953;28;20391;-76
2024/02/29 12:47:19;;;;;;;1999.90;999.90;;;;;;;16.71;71.60;94932.50;10383074;28;20037;-75
2024/02/29 12:52:20;;;;;;;1999.90;999.90;;;;;;;15.80;79.39;94947.72;10381364;28;20060;-75
2024/02/29 12:57:20;;;;;;;1999.90;999.90;;;;;;;15.83;80.56;94957.16;10380539;28;20403;-75
2024/02/29 13:02:21;;;;;;;1999.90;999.90;;;;;;;15.65;85.68;94948.00;10381704;28;20046;-75
2024/02/29 13:07:22;;;;;;;1999.90;999.90;;;;;;;15.73;84.69;94952.72;10381218;28;20276;-75
2024/02/29 13:12:22;;;;;;;1999.90;999.90;;;;;;;16.14;81.02;94951.91;10382239;28;20411;-76
2024/02/29 13:17:22;;;;;;;1999.90;999.90;;;;;;;15.99;80.56;94938.69;10380396;28;20051;-75
2024/02/29 13:22:23;;;;;;;1999.90;999.90;;;;;;;16.04;80.60;94938.59;10379556;28;20044;-76
2024/02/29 13:27:23;;;;;;;1999.90;999.90;;;;;;;15.92;81.05;94946.41;10381464;28;20396;-75
2024/02/29 13:32:24;;;;;;;1999.90;999.90;;;;;;;16.28;80.32;94941.06;10380406;28;20091;-75
2024/02/29 13:37:24;;;;;;;1999.90;999.90;;;;;;;16.33;78.80;94926.59;10381821;28;20334;-75
2024/02/29 13:42:25;;;;;;;1999.90;999.90;;;;;;;16.14;78.79;94924.00;10380657;28;20076;-74
2024/02/29 13:47:25;;;;;;;1999.90;999.90;;;;;;;16.10;79.66;94936.56;10379710;28;20396;-74
2024/02/29 13:52:26;;;;;;;1999.90;999.90;;;;;;;15.74;83.58;94927.22;10381353;28;20040;-75
2024/02/29 13:57:26;;;;;;;1999.90;999.90;;;;;;;16.02;84.62;94927.25;10380187;28;20036;-76
2024/02/29 14:02:27;;;;;;;1999.90;999.90;;;;;;;15.81;82.47;94921.41;10379596;28;20044;-74
2024/02/29 14:07:28;;;;;;;1999.90;999.90;;;;;;;15.72;83.26;94919.38;10379810;28;20036;-76
2024/02/29 14:12:28;;;;;;;1999.90;999.90;;;;;;;15.59;84.54;94917.50;10379322;28;20278;-75
2024/02/29 14:17:28;;;;;;;1999.90;999.90;;;;;;;15.63;84.60;94906.84;10386461;28;20523;-76
2024/02/29 14:22:29;;;;;;;1999.90;999.90;;;;;;;15.52;83.96;94890.00;10386257;28;20037;-75
2024/02/29 14:27:30;;;;;;;1999.90;999.90;;;;;;;15.12;85.39;94890.44;10386510;28;20037;-74
2024/02/29 14:32:30;;;;;;;1999.90;999.90;;;;;;;15.03;88.48;94881.41;10386715;28;20537;-74
2024/02/29 14:37:32;;;;;;;1999.90;999.90;;;;;;;15.12;89.11;94879.59;10386265;28;20439;-76
2024/02/29 14:42:33;;;;;;;1999.90;999.90;;;;;;;14.82;89.07;94887.16;10386627;28;20115;-77
2024/02/29 14:47:33;;;;;;;1999.90;999.90;;;;;;;14.92;88.21;94875.38;10387073;28;20384;-75
2024/02/29 14:52:34;;;;;;;1999.90;999.90;;;;;;;14.81;89.02;94880.13;10385465;28;20033;-76
2024/02/29 14:57:34;;;;;;;1999.90;999.90;;;;;;;14.57;90.01;94920.00;10387681;28;20484;-77
2024/02/29 15:02:35;;;;;;;1999.90;999.90;;;;;;;14.17;93.13;94914.88;10385202;28;20450;-75
2024/02/29 15:07:41;;;;;;;1999.90;999.90;;;;;;;14.07;93.54;94893.41;10386604;28;20040;-75
2024/02/29 15:12:41;;;;;;;1999.90;999.90;;;;;;;13.90;95.35;94877.66;10385593;28;20032;-75
2024/02/29 15:17:42;;;;;;;1999.90;999.90;;;;;;;13.77;97.29;94923.25;10385207;28;20379;-76
2024/02/29 15:22:42;;;;;;;1999.90;999.90;;;;;;;13.80;98.80;94911.03;10386806;28;20033;-74
2024/02/29 15:27:43;;;;;;;1999.90;999.90;;;;;;;13.73;100.00;94910.56;10384577;28;20132;-76
2024/02/29 15:32:44;;;;;;;1999.90;999.90;;;;;;;13.83;100.00;94911.25;10397782;28;20303;-75
2024/02/29 15:37:44;;;;;;;1999.90;999.90;;;;;;;13.88;99.98;94901.50;10388081;28;20029;-74
2024/02/29 15:42:44;;;;;;;1999.90;999.90;;;;;;;13.93;99.77;94910.34;10383794;28;20120;-76
2024/02/29 15:47:45;;;;;;;1999.90;999.90;;;;;;;14.03;99.15;94904.00;10384486;28;20105;-76
2024/02/29 15:52:45;;;;;;;1999.90;999.90;;;;;;;13.96;99.47;94898.16;10383713;28;20112;-77
2024/02/29 15:57:46;;;;;;;1999.90;999.90;;;;;;;13.83;99.82;94905.06;10384931;28;20056;-75
2024/02/29 16:02:46;;;;;;;1999.90;999.90;;;;;;;13.63;100.00;94906.94;10385608;28;20068;-76
2024/02/29 16:07:46;;;;;;;1999.90;999.90;;;;;;;13.58;100.00;94915.06;10383122;28;20722;-74
2024/02/29 16:12:48;;;;;;;1999.90;999.90;;;;;;;13.55;100.00;94910.25;10383097;28;20276;-76
2024/02/29 16:17:48;;;;;;;1999.90;999.90;;;;;;;13.30;100.00;94906.69;10384300;28;20453;-76
2024/02/29 16:22:49;;;;;;;1999.90;999.90;;;;;;;13.31;100.00;94899.41;10381960;28;20119;-74
2024/02/29 16:27:51;;;;;;;1999.90;999.90;;;;;;;13.17;100.00;94899.28;10383793;28;20342;-74
2024/02/29 16:32:51;;;;;;;1999.90;999.90;;;;;;;13.08;100.00;94899.09;10386197;28;20492;-74
2024/02/29 16:37:51;;;;;;;1999.90;999.90;;;;;;;13.08;100.00;94904.50;10380506;28;20060;-74
2024/02/29 16:42:52;;;;;;;1999.90;999.90;;;;;;;12.94;100.00;94896.25;10384043;28;20476;-76
2024/02/29 16:47:52;;;;;;;1999.90;999.90;;;;;;;12.77;100.00;94893.97;10382045;28;20026;-78
2024/02/29 16:52:53;;;;;;;1999.90;999.90;;;;;;;12.80;100.00;94884.53;10385381;28;20040;-78
2024/02/29 16:57:55;;;;;;;1999.90;999.90;;;;;;;12.72;100.00;94885.91;10385141;28;20452;-79
2024/02/29 17:02:56;;;;;;;1999.90;999.90;;;;;;;12.47;100.00;94874.28;10384500;28;20446;-78
2024/02/29 17:07:56;;;;;;;1999.90;999.90;;;;;;;12.50;100.00;94864.00;10384025;28;20040;-77
2024/02/29 17:12:57;;;;;;;1999.90;999.90;;;;;;;12.27;100.00;94869.81;10381768;28;20490;-75
2024/02/29 17:17:58;;;;;;;1999.90;999.90;;;;;;;12.02;100.00;94862.72;10382589;28;20033;-75
2024/02/29 17:22:58;;;;;;;1999.90;999.90;;;;;;;11.97;100.00;94862.75;10383992;28;20675;-78
2024/02/29 17:27:58;;;;;;;1999.90;999.90;;;;;;;11.93;100.00;94862.47;10380825;28;20025;-75
2024/02/29 17:32:59;;;;;;;1999.90;999.90;;;;;;;11.91;100.00;94863.84;10383144;28;20038;-76
2024/02/29 17:37:59;;;;;;;1999.90;999.90;;;;;;;11.91;100.00;94880.78;10383463;28;20111;-78
2024/02/29 17:43:00;;;;;;;1999.90;999.90;;;;;;;11.91;100.00;94871.91;10382918;28;20095;-78
2024/02/29 17:48:00;;;;;;;1999.90;999.90;;;;;;;11.81;100.00;94878.16;10384828;28;20425;-79
2024/02/29 17:53:00;;;;;;;1999.90;999.90;;;;;;;11.79;100.00;94864.97;10390614;28;20033;-76
2024/02/29 17:58:01;;;;;;;1999.90;999.90;;;;;;;11.74;100.00;94853.44;10390518;28;20033;-77
2024/02/29 18:03:01;;;;;;;1999.90;999.90;;;;;;;11.80;100.00;94863.91;10390706;28;20328;-76
2024/02/29 18:08:02;;;;;;;1999.90;999.90;;;;;;;11.84;100.00;94841.78;10389985;28;20116;-76
2024/02/29 18:13:03;;;;;;;1999.90;999.90;;;;;;;11.73;100.00;94839.13;10390885;28;20563;-76
2024/02/29 18:18:03;;;;;;;1999.90;999.90;;;;;;;11.75;100.00;94836.19;10389206;28;20034;-75
2024/02/29 18:23:04;;;;;;;1999.90;999.90;;;;;;;11.74;100.00;94832.69;10389098;28;20044;-75
2024/02/29 18:28:04;;;;;;;1999.90;999.90;;;;;;;11.74;100.00;94829.19;10391239;28;20491;-76
2024/02/29 18:33:04;;;;;;;1999.90;999.90;;;;;;;11.70;100.00;94826.25;10388145;28;20029;-75
2024/02/29 18:38:05;;;;;;;1999.90;999.90;;;;;;;11.59;100.00;94811.22;10389356;28;20032;-75
2024/02/29 18:43:05;;;;;;;1999.90;999.90;;;;;;;11.54;100.00;94812.06;10390012;28;20036;-75
2024/02/29 18:48:07;;;;;;;1999.90;999.90;;;;;;;11.62;100.00;94808.81;10385573;28;20029;-74
2024/02/29 18:53:07;;;;;;;1999.90;999.90;;;;;;;11.55;100.00;94812.88;10404852;28;20760;-77
2024/02/29 18:58:07;;;;;;;1999.90;999.90;;;;;;;11.48;100.00;94815.84;10404323;28;20028;-75
2024/02/29 19:03:08;;;;;;;1999.90;999.90;;;;;;;11.26;100.00;94810.84;10387715;28;20045;-77
2024/02/29 19:08:08;;;;;;;1999.90;999.90;;;;;;;11.29;100.00;94815.69;10388348;28;20503;-75
2024/02/29 19:13:11;;;;;;;1999.90;999.90;;;;;;;11.36;100.00;94818.06;10388527;28;20371;-88
2024/02/29 19:18:11;;;;;;;1999.90;999.90;;;;;;;11.32;100.00;94819.72;10387174;28;20917;-79
2024/02/29 19:23:12;;;;;;;1999.90;999.90;;;;;;;11.23;100.00;94816.75;10388658;28;20033;-83
2024/02/29 19:28:12;;;;;;;1999.90;999.90;;;;;;;11.28;100.00;94811.38;10379577;28;20038;-76
2024/02/29 19:33:13;;;;;;;1999.90;999.90;;;;;;;11.22;100.00;94824.03;10386805;28;20275;-78
2024/02/29 19:38:13;;;;;;;1999.90;999.90;;;;;;;11.21;100.00;94811.66;10386754;28;20532;-75
2024/02/29 19:43:15;;;;;;;1999.90;999.90;;;;;;;11.22;100.00;94812.47;10385812;28;20034;-76
2024/02/29 19:48:15;;;;;;;1999.90;999.90;;;;;;;11.21;100.00;94808.19;10388855;28;20480;-79
2024/02/29 19:53:16;;;;;;;1999.90;999.90;;;;;;;11.13;100.00;94816.81;10384882;28;20025;-79
2024/02/29 19:58:17;;;;;;;1999.90;999.90;;;;;;;11.13;100.00;94812.22;10387005;28;20292;-80
2024/02/29 20:03:21;;;;;;;1999.90;999.90;;;;;;;11.02;100.00;94822.22;10403822;28;20083;-78
2024/02/29 20:08:21;;;;;;;1999.90;999.90;;;;;;;11.07;100.00;94806.06;10361962;28;20412;-78
2024/02/29 20:13:24;;;;;;;1999.90;999.90;;;;;;;11.01;100.00;94811.72;10366686;28;20036;-75
2024/02/29 20:18:27;;;;;;;1999.90;999.90;;;;;;;10.94;100.00;94782.47;10371230;28;20029;-78
2024/02/29 20:23:27;;;;;;;1999.90;999.90;;;;;;;10.97;100.00;94771.16;10393286;28;20362;-81
2024/02/29 20:28:28;;;;;;;1999.90;999.90;;;;;;;10.94;100.00;94777.09;10388298;28;20013;-79
2024/02/29 20:33:28;;;;;;;1999.90;999.90;;;;;;;10.63;100.00;94790.56;10384180;28;20464;-78
2024/02/29 20:38:34;;;;;;;1999.90;999.90;;;;;;;10.57;100.00;94783.63;10383416;28;20033;-77
2024/02/29 20:43:34;;;;;;;1999.90;999.90;;;;;;;10.64;100.00;94772.59;10381994;28;20478;-77
2024/02/29 20:48:36;;;;;;;1999.90;999.90;;;;;;;10.72;100.00;94769.34;10382205;28;20025;-76
2024/02/29 20:53:37;;;;;;;1999.90;999.90;;;;;;;10.73;100.00;94771.75;10385356;28;20025;-77
2024/02/29 20:58:37;;;;;;;1999.90;999.90;;;;;;;10.88;100.00;94767.41;10362037;28;20522;-77
2024/02/29 21:03:37;;;;;;;1999.90;999.90;;;;;;;10.85;100.00;94773.34;10360558;28;20423;-76
2024/02/29 21:08:38;;;;;;;1999.90;999.90;;;;;;;10.95;100.00;94767.91;10349985;28;20303;-76
2024/02/29 21:13:42;;;;;;;1999.90;999.90;;;;;;;10.87;100.00;94774.69;10377442;28;20036;-77
2024/02/29 21:18:42;;;;;;;1999.90;999.90;;;;;;;10.94;100.00;94799.38;10377748;28;20044;-75
2024/02/29 21:23:42;;;;;;;1999.90;999.90;;;;;;;10.94;100.00;94793.22;10381740;28;20159;-78
2024/02/29 21:28:46;;;;;;;1999.90;999.90;;;;;;;11.12;100.00;94797.16;10384259;28;20454;-76
2024/02/29 21:33:46;;;;;;;1999.90;999.90;;;;;;;11.18;100.00;94787.22;10384152;28;20480;-81
2024/02/29 21:38:48;;;;;;;1999.90;999.90;;;;;;;11.19;100.00;94791.50;10389517;28;20516;-82
2024/02/29 21:43:49;;;;;;;1999.90;999.90;;;;;;;11.08;100.00;94788.06;10390200;28;20116;-85
2024/02/29 21:48:49;;;;;;;1999.90;999.90;;;;;;;11.06;100.00;94795.59;10393439;28;20305;-84
2024/02/29 21:53:50;;;;;;;1999.90;999.90;;;;;;;11.06;100.00;94791.00;10388992;28;20464;-86
2024/02/29 21:58:50;;;;;;;1999.90;999.90;;;;;;;11.06;100.00;94800.97;10391852;28;20387;-83